sensor_id;sensor_type;location;lat;lon;timestamp;P1;durP1;ratioP1;P2;durP2;ratioP2
38240;SDS011;24037;49.536;8.500;2022-10-31T00:00:30;17.13;;;6.68;;
38240;SDS011;24037;49.536;8.500;2022-10-31T00:02:57;12.20;;;7.20;;
38240;SDS011;24037;49.536;8.500;2022-10-31T00:05:23;14.88;;;8.13;;
38240;SDS011;24037;49.536;8.500;2022-10-31T00:07:51;15.20;;;7.22;;
38240;SDS011;24037;49.536;8.500;2022-10-31T00:10:18;14.45;;;6.68;;
38240;SDS011;24037;49.536;8.500;2022-10-31T00:12:44;14.85;;;7.47;;
38240;SDS011;24037;49.536;8.500;2022-10-31T00:15:10;14.63;;;7.20;;
38240;SDS011;24037;49.536;8.500;2022-10-31T00:17:37;16.05;;;7.65;;
38240;SDS011;24037;49.536;8.500;2022-10-31T00:20:03;10.40;;;6.85;;
38240;SDS011;24037;49.536;8.500;2022-10-31T00:22:29;14.77;;;6.22;;
38240;SDS011;24037;49.536;8.500;2022-10-31T00:24:56;13.70;;;7.20;;
38240;SDS011;24037;49.536;8.500;2022-10-31T00:27:22;13.32;;;7.38;;
38240;SDS011;24037;49.536;8.500;2022-10-31T00:29:48;11.52;;;6.57;;
38240;SDS011;24037;49.536;8.500;2022-10-31T00:32:14;15.40;;;6.60;;
38240;SDS011;24037;49.536;8.500;2022-10-31T00:34:40;12.90;;;6.63;;
38240;SDS011;24037;49.536;8.500;2022-10-31T00:37:07;11.68;;;6.50;;
38240;SDS011;24037;49.536;8.500;2022-10-31T00:39:34;14.95;;;7.65;;
38240;SDS011;24037;49.536;8.500;2022-10-31T00:42:01;15.30;;;6.35;;
38240;SDS011;24037;49.536;8.500;2022-10-31T00:44:27;15.98;;;8.48;;
38240;SDS011;24037;49.536;8.500;2022-10-31T00:46:53;16.27;;;7.70;;
38240;SDS011;24037;49.536;8.500;2022-10-31T00:49:21;12.88;;;6.70;;
38240;SDS011;24037;49.536;8.500;2022-10-31T00:51:47;9.82;;;6.25;;
38240;SDS011;24037;49.536;8.500;2022-10-31T00:54:14;12.75;;;7.28;;
38240;SDS011;24037;49.536;8.500;2022-10-31T00:56:40;14.25;;;6.72;;
38240;SDS011;24037;49.536;8.500;2022-10-31T00:59:07;13.65;;;7.20;;
38240;SDS011;24037;49.536;8.500;2022-10-31T01:01:34;12.30;;;6.60;;
38240;SDS011;24037;49.536;8.500;2022-10-31T01:04:02;24.20;;;8.88;;
38240;SDS011;24037;49.536;8.500;2022-10-31T01:06:31;18.83;;;6.93;;
38240;SDS011;24037;49.536;8.500;2022-10-31T01:08:57;13.65;;;7.20;;
38240;SDS011;24037;49.536;8.500;2022-10-31T01:11:24;16.42;;;8.20;;
38240;SDS011;24037;49.536;8.500;2022-10-31T01:13:51;11.82;;;7.35;;
38240;SDS011;24037;49.536;8.500;2022-10-31T01:16:20;13.98;;;7.25;;
38240;SDS011;24037;49.536;8.500;2022-10-31T01:18:49;15.32;;;6.15;;
38240;SDS011;24037;49.536;8.500;2022-10-31T01:21:18;11.25;;;6.53;;
38240;SDS011;24037;49.536;8.500;2022-10-31T01:23:49;12.32;;;6.50;;
38240;SDS011;24037;49.536;8.500;2022-10-31T01:26:17;10.93;;;6.13;;
38240;SDS011;24037;49.536;8.500;2022-10-31T01:31:19;12.30;;;6.57;;
38240;SDS011;24037;49.536;8.500;2022-10-31T01:33:46;11.60;;;5.63;;
38240;SDS011;24037;49.536;8.500;2022-10-31T01:36:17;9.80;;;6.30;;
38240;SDS011;24037;49.536;8.500;2022-10-31T01:38:53;16.20;;;7.80;;
38240;SDS011;24037;49.536;8.500;2022-10-31T01:41:23;12.00;;;6.03;;
38240;SDS011;24037;49.536;8.500;2022-10-31T01:43:55;11.13;;;6.15;;
38240;SDS011;24037;49.536;8.500;2022-10-31T01:48:59;13.02;;;5.57;;
38240;SDS011;24037;49.536;8.500;2022-10-31T01:51:30;14.75;;;6.50;;
38240;SDS011;24037;49.536;8.500;2022-10-31T01:54:01;14.20;;;6.05;;
38240;SDS011;24037;49.536;8.500;2022-10-31T01:56:32;14.65;;;7.32;;
38240;SDS011;24037;49.536;8.500;2022-10-31T01:59:05;13.57;;;6.85;;
38240;SDS011;24037;49.536;8.500;2022-10-31T02:01:35;11.65;;;6.40;;
38240;SDS011;24037;49.536;8.500;2022-10-31T02:04:02;15.02;;;6.28;;
38240;SDS011;24037;49.536;8.500;2022-10-31T02:06:33;11.18;;;6.35;;
38240;SDS011;24037;49.536;8.500;2022-10-31T02:09:19;11.75;;;6.32;;
38240;SDS011;24037;49.536;8.500;2022-10-31T02:11:52;10.90;;;6.15;;
38240;SDS011;24037;49.536;8.500;2022-10-31T02:14:22;11.15;;;5.72;;
38240;SDS011;24037;49.536;8.500;2022-10-31T02:16:51;11.27;;;7.15;;
38240;SDS011;24037;49.536;8.500;2022-10-31T02:22:13;11.18;;;5.95;;
38240;SDS011;24037;49.536;8.500;2022-10-31T02:24:56;11.88;;;7.03;;
38240;SDS011;24037;49.536;8.500;2022-10-31T02:30:16;11.20;;;6.53;;
38240;SDS011;24037;49.536;8.500;2022-10-31T02:35:47;15.13;;;6.47;;
38240;SDS011;24037;49.536;8.500;2022-10-31T02:41:33;11.00;;;5.55;;
38240;SDS011;24037;49.536;8.500;2022-10-31T02:44:08;8.77;;;5.60;;
38240;SDS011;24037;49.536;8.500;2022-10-31T02:52:20;15.07;;;8.32;;
38240;SDS011;24037;49.536;8.500;2022-10-31T02:54:49;9.23;;;6.25;;
38240;SDS011;24037;49.536;8.500;2022-10-31T02:57:17;15.25;;;5.90;;
38240;SDS011;24037;49.536;8.500;2022-10-31T02:59:58;7.80;;;4.67;;
38240;SDS011;24037;49.536;8.500;2022-10-31T03:10:54;13.43;;;6.75;;
38240;SDS011;24037;49.536;8.500;2022-10-31T03:13:39;12.32;;;6.55;;
38240;SDS011;24037;49.536;8.500;2022-10-31T03:16:17;14.18;;;5.70;;
38240;SDS011;24037;49.536;8.500;2022-10-31T03:24:11;11.35;;;6.35;;
38240;SDS011;24037;49.536;8.500;2022-10-31T03:26:41;11.07;;;6.45;;
38240;SDS011;24037;49.536;8.500;2022-10-31T03:29:15;11.05;;;6.43;;
38240;SDS011;24037;49.536;8.500;2022-10-31T03:34:35;14.70;;;7.70;;
38240;SDS011;24037;49.536;8.500;2022-10-31T03:37:05;14.15;;;8.02;;
38240;SDS011;24037;49.536;8.500;2022-10-31T03:39:34;12.18;;;6.20;;
38240;SDS011;24037;49.536;8.500;2022-10-31T03:42:10;10.65;;;5.35;;
38240;SDS011;24037;49.536;8.500;2022-10-31T03:44:40;12.60;;;6.47;;
38240;SDS011;24037;49.536;8.500;2022-10-31T03:47:09;11.20;;;6.07;;
38240;SDS011;24037;49.536;8.500;2022-10-31T03:49:36;11.63;;;5.65;;
38240;SDS011;24037;49.536;8.500;2022-10-31T03:55:29;11.45;;;5.35;;
38240;SDS011;24037;49.536;8.500;2022-10-31T03:58:02;11.75;;;5.60;;
38240;SDS011;24037;49.536;8.500;2022-10-31T04:00:33;10.70;;;5.80;;
38240;SDS011;24037;49.536;8.500;2022-10-31T04:05:31;12.30;;;6.05;;
38240;SDS011;24037;49.536;8.500;2022-10-31T04:08:00;9.35;;;5.57;;
38240;SDS011;24037;49.536;8.500;2022-10-31T04:10:31;14.05;;;5.07;;
38240;SDS011;24037;49.536;8.500;2022-10-31T04:13:06;10.63;;;5.55;;
38240;SDS011;24037;49.536;8.500;2022-10-31T04:15:42;12.23;;;6.40;;
38240;SDS011;24037;49.536;8.500;2022-10-31T04:18:10;9.50;;;5.35;;
38240;SDS011;24037;49.536;8.500;2022-10-31T04:20:37;12.75;;;7.68;;
38240;SDS011;24037;49.536;8.500;2022-10-31T04:23:08;11.00;;;5.50;;
38240;SDS011;24037;49.536;8.500;2022-10-31T04:25:44;10.75;;;5.85;;
38240;SDS011;24037;49.536;8.500;2022-10-31T04:28:11;11.55;;;5.82;;
38240;SDS011;24037;49.536;8.500;2022-10-31T04:30:37;11.85;;;6.38;;
38240;SDS011;24037;49.536;8.500;2022-10-31T04:33:03;10.48;;;5.45;;
38240;SDS011;24037;49.536;8.500;2022-10-31T04:35:29;10.65;;;5.45;;
38240;SDS011;24037;49.536;8.500;2022-10-31T04:37:55;13.95;;;6.05;;
38240;SDS011;24037;49.536;8.500;2022-10-31T04:40:22;14.70;;;6.00;;
38240;SDS011;24037;49.536;8.500;2022-10-31T04:42:54;12.43;;;5.50;;
38240;SDS011;24037;49.536;8.500;2022-10-31T04:45:21;12.50;;;5.68;;
38240;SDS011;24037;49.536;8.500;2022-10-31T04:47:50;13.90;;;6.65;;
38240;SDS011;24037;49.536;8.500;2022-10-31T04:50:17;13.30;;;6.22;;
38240;SDS011;24037;49.536;8.500;2022-10-31T04:52:45;13.20;;;6.78;;
38240;SDS011;24037;49.536;8.500;2022-10-31T04:55:14;14.05;;;6.75;;
38240;SDS011;24037;49.536;8.500;2022-10-31T04:57:59;10.18;;;6.32;;
38240;SDS011;24037;49.536;8.500;2022-10-31T05:00:26;10.63;;;6.47;;
38240;SDS011;24037;49.536;8.500;2022-10-31T05:02:53;12.20;;;7.60;;
38240;SDS011;24037;49.536;8.500;2022-10-31T05:05:23;14.55;;;5.97;;
38240;SDS011;24037;49.536;8.500;2022-10-31T05:07:51;13.88;;;6.75;;
38240;SDS011;24037;49.536;8.500;2022-10-31T05:10:20;10.25;;;5.25;;
38240;SDS011;24037;49.536;8.500;2022-10-31T05:12:53;11.77;;;6.32;;
38240;SDS011;24037;49.536;8.500;2022-10-31T05:15:49;9.80;;;6.35;;
38240;SDS011;24037;49.536;8.500;2022-10-31T05:18:34;8.63;;;5.80;;
38240;SDS011;24037;49.536;8.500;2022-10-31T05:21:19;8.63;;;5.97;;
38240;SDS011;24037;49.536;8.500;2022-10-31T05:23:54;13.70;;;6.03;;
38240;SDS011;24037;49.536;8.500;2022-10-31T05:26:23;13.27;;;6.90;;
38240;SDS011;24037;49.536;8.500;2022-10-31T05:28:50;11.02;;;5.90;;
38240;SDS011;24037;49.536;8.500;2022-10-31T05:31:16;9.18;;;5.65;;
38240;SDS011;24037;49.536;8.500;2022-10-31T05:33:42;13.20;;;6.03;;
38240;SDS011;24037;49.536;8.500;2022-10-31T05:36:27;14.60;;;6.63;;
38240;SDS011;24037;49.536;8.500;2022-10-31T05:38:57;11.80;;;6.70;;
38240;SDS011;24037;49.536;8.500;2022-10-31T05:41:26;10.65;;;5.32;;
38240;SDS011;24037;49.536;8.500;2022-10-31T05:44:02;13.23;;;7.05;;
38240;SDS011;24037;49.536;8.500;2022-10-31T05:46:31;18.25;;;6.18;;
38240;SDS011;24037;49.536;8.500;2022-10-31T05:49:16;10.32;;;5.57;;
38240;SDS011;24037;49.536;8.500;2022-10-31T05:52:20;11.98;;;6.10;;
38240;SDS011;24037;49.536;8.500;2022-10-31T05:54:54;12.65;;;7.20;;
38240;SDS011;24037;49.536;8.500;2022-10-31T05:57:20;18.92;;;8.18;;
38240;SDS011;24037;49.536;8.500;2022-10-31T05:59:46;24.55;;;8.93;;
38240;SDS011;24037;49.536;8.500;2022-10-31T06:02:13;24.65;;;9.68;;
38240;SDS011;24037;49.536;8.500;2022-10-31T06:04:58;19.20;;;8.30;;
38240;SDS011;24037;49.536;8.500;2022-10-31T06:07:25;20.23;;;9.30;;
38240;SDS011;24037;49.536;8.500;2022-10-31T06:09:52;24.88;;;9.48;;
38240;SDS011;24037;49.536;8.500;2022-10-31T06:12:20;17.67;;;8.77;;
38240;SDS011;24037;49.536;8.500;2022-10-31T06:15:05;19.15;;;9.60;;
38240;SDS011;24037;49.536;8.500;2022-10-31T06:17:35;20.25;;;9.95;;
38240;SDS011;24037;49.536;8.500;2022-10-31T06:20:25;23.35;;;10.77;;
38240;SDS011;24037;49.536;8.500;2022-10-31T06:23:01;17.85;;;10.20;;
38240;SDS011;24037;49.536;8.500;2022-10-31T06:25:29;16.33;;;10.13;;
38240;SDS011;24037;49.536;8.500;2022-10-31T06:27:55;25.20;;;11.35;;
38240;SDS011;24037;49.536;8.500;2022-10-31T06:32:52;24.30;;;11.70;;
38240;SDS011;24037;49.536;8.500;2022-10-31T06:35:19;26.48;;;12.90;;
38240;SDS011;24037;49.536;8.500;2022-10-31T06:37:51;24.38;;;13.05;;
38240;SDS011;24037;49.536;8.500;2022-10-31T06:40:30;24.73;;;12.18;;
38240;SDS011;24037;49.536;8.500;2022-10-31T06:43:14;25.25;;;13.93;;
38240;SDS011;24037;49.536;8.500;2022-10-31T06:45:41;26.50;;;14.57;;
38240;SDS011;24037;49.536;8.500;2022-10-31T06:48:42;25.55;;;12.38;;
38240;SDS011;24037;49.536;8.500;2022-10-31T06:51:18;24.70;;;12.18;;
38240;SDS011;24037;49.536;8.500;2022-10-31T06:53:44;17.67;;;11.10;;
38240;SDS011;24037;49.536;8.500;2022-10-31T06:56:12;19.75;;;11.77;;
38240;SDS011;24037;49.536;8.500;2022-10-31T06:58:46;19.70;;;11.38;;
38240;SDS011;24037;49.536;8.500;2022-10-31T07:01:13;20.13;;;12.00;;
38240;SDS011;24037;49.536;8.500;2022-10-31T07:03:39;16.95;;;11.05;;
38240;SDS011;24037;49.536;8.500;2022-10-31T07:06:07;14.73;;;10.70;;
38240;SDS011;24037;49.536;8.500;2022-10-31T07:08:33;17.73;;;9.88;;
38240;SDS011;24037;49.536;8.500;2022-10-31T07:10:59;18.45;;;10.75;;
38240;SDS011;24037;49.536;8.500;2022-10-31T07:13:28;14.02;;;9.45;;
38240;SDS011;24037;49.536;8.500;2022-10-31T07:16:03;14.27;;;9.50;;
38240;SDS011;24037;49.536;8.500;2022-10-31T07:18:33;16.25;;;9.57;;
38240;SDS011;24037;49.536;8.500;2022-10-31T07:21:00;14.35;;;8.95;;
38240;SDS011;24037;49.536;8.500;2022-10-31T07:23:26;12.30;;;8.27;;
38240;SDS011;24037;49.536;8.500;2022-10-31T07:26:15;11.68;;;7.82;;
38240;SDS011;24037;49.536;8.500;2022-10-31T07:28:45;9.63;;;6.75;;
38240;SDS011;24037;49.536;8.500;2022-10-31T07:31:13;11.43;;;7.15;;
38240;SDS011;24037;49.536;8.500;2022-10-31T07:33:41;9.10;;;6.32;;
38240;SDS011;24037;49.536;8.500;2022-10-31T07:36:36;11.63;;;7.00;;
38240;SDS011;24037;49.536;8.500;2022-10-31T07:39:03;8.07;;;6.15;;
38240;SDS011;24037;49.536;8.500;2022-10-31T07:41:32;9.85;;;6.25;;
38240;SDS011;24037;49.536;8.500;2022-10-31T07:43:58;10.55;;;5.78;;
38240;SDS011;24037;49.536;8.500;2022-10-31T07:46:53;7.95;;;5.35;;
38240;SDS011;24037;49.536;8.500;2022-10-31T07:49:46;6.68;;;5.30;;
38240;SDS011;24037;49.536;8.500;2022-10-31T07:52:24;7.85;;;5.05;;
38240;SDS011;24037;49.536;8.500;2022-10-31T07:55:16;5.97;;;5.07;;
38240;SDS011;24037;49.536;8.500;2022-10-31T07:57:54;8.52;;;5.80;;
38240;SDS011;24037;49.536;8.500;2022-10-31T08:00:21;7.28;;;5.20;;
38240;SDS011;24037;49.536;8.500;2022-10-31T08:02:55;6.38;;;4.75;;
38240;SDS011;24037;49.536;8.500;2022-10-31T08:05:52;7.90;;;5.53;;
38240;SDS011;24037;49.536;8.500;2022-10-31T08:08:41;9.98;;;5.35;;
38240;SDS011;24037;49.536;8.500;2022-10-31T08:11:08;8.57;;;5.43;;
38240;SDS011;24037;49.536;8.500;2022-10-31T08:13:35;7.53;;;5.28;;
38240;SDS011;24037;49.536;8.500;2022-10-31T08:16:01;6.03;;;4.68;;
38240;SDS011;24037;49.536;8.500;2022-10-31T08:18:31;10.00;;;5.63;;
38240;SDS011;24037;49.536;8.500;2022-10-31T08:20:58;6.80;;;5.07;;
38240;SDS011;24037;49.536;8.500;2022-10-31T08:23:24;7.57;;;4.97;;
38240;SDS011;24037;49.536;8.500;2022-10-31T08:25:53;7.88;;;5.05;;
38240;SDS011;24037;49.536;8.500;2022-10-31T08:28:19;7.30;;;4.85;;
38240;SDS011;24037;49.536;8.500;2022-10-31T08:30:49;8.05;;;5.43;;
38240;SDS011;24037;49.536;8.500;2022-10-31T08:33:33;11.45;;;4.53;;
38240;SDS011;24037;49.536;8.500;2022-10-31T08:36:18;8.73;;;4.70;;
38240;SDS011;24037;49.536;8.500;2022-10-31T08:39:04;9.05;;;4.47;;
38240;SDS011;24037;49.536;8.500;2022-10-31T08:41:30;6.38;;;4.45;;
38240;SDS011;24037;49.536;8.500;2022-10-31T08:43:58;5.93;;;4.32;;
38240;SDS011;24037;49.536;8.500;2022-10-31T08:46:24;6.78;;;4.78;;
38240;SDS011;24037;49.536;8.500;2022-10-31T08:48:52;11.00;;;6.13;;
38240;SDS011;24037;49.536;8.500;2022-10-31T08:51:19;6.70;;;4.85;;
38240;SDS011;24037;49.536;8.500;2022-10-31T08:53:49;11.85;;;5.35;;
38240;SDS011;24037;49.536;8.500;2022-10-31T08:56:24;9.75;;;5.22;;
38240;SDS011;24037;49.536;8.500;2022-10-31T08:58:52;9.10;;;5.32;;
38240;SDS011;24037;49.536;8.500;2022-10-31T09:01:25;11.95;;;5.45;;
38240;SDS011;24037;49.536;8.500;2022-10-31T09:03:51;6.65;;;5.43;;
38240;SDS011;24037;49.536;8.500;2022-10-31T09:06:17;8.88;;;5.82;;
38240;SDS011;24037;49.536;8.500;2022-10-31T09:08:47;9.50;;;5.40;;
38240;SDS011;24037;49.536;8.500;2022-10-31T09:11:13;9.52;;;5.55;;
38240;SDS011;24037;49.536;8.500;2022-10-31T09:14:14;8.65;;;5.93;;
38240;SDS011;24037;49.536;8.500;2022-10-31T09:17:00;9.43;;;6.70;;
38240;SDS011;24037;49.536;8.500;2022-10-31T09:19:42;11.10;;;6.45;;
38240;SDS011;24037;49.536;8.500;2022-10-31T09:22:08;9.07;;;5.70;;
38240;SDS011;24037;49.536;8.500;2022-10-31T09:24:34;10.23;;;7.30;;
38240;SDS011;24037;49.536;8.500;2022-10-31T09:27:01;13.20;;;6.75;;
38240;SDS011;24037;49.536;8.500;2022-10-31T09:29:27;10.43;;;5.57;;
38240;SDS011;24037;49.536;8.500;2022-10-31T09:31:57;11.18;;;6.22;;
38240;SDS011;24037;49.536;8.500;2022-10-31T09:34:27;11.25;;;6.20;;
38240;SDS011;24037;49.536;8.500;2022-10-31T09:37:10;8.98;;;6.40;;
38240;SDS011;24037;49.536;8.500;2022-10-31T09:39:36;8.40;;;6.65;;
38240;SDS011;24037;49.536;8.500;2022-10-31T09:47:45;9.82;;;7.25;;
38240;SDS011;24037;49.536;8.500;2022-10-31T09:50:36;11.07;;;7.53;;
38240;SDS011;24037;49.536;8.500;2022-10-31T09:53:38;11.50;;;7.05;;
38240;SDS011;24037;49.536;8.500;2022-10-31T09:59:05;10.30;;;7.25;;
38240;SDS011;24037;49.536;8.500;2022-10-31T10:30:17;12.40;;;7.47;;
38240;SDS011;24037;49.536;8.500;2022-10-31T10:44:52;11.63;;;6.50;;
38240;SDS011;24037;49.536;8.500;2022-10-31T11:00:21;12.45;;;7.22;;
38240;SDS011;24037;49.536;8.500;2022-10-31T11:02:52;12.82;;;6.88;;
38240;SDS011;24037;49.536;8.500;2022-10-31T11:05:28;12.95;;;6.97;;
38240;SDS011;24037;49.536;8.500;2022-10-31T11:08:04;16.23;;;6.93;;
38240;SDS011;24037;49.536;8.500;2022-10-31T11:10:31;12.35;;;7.47;;
38240;SDS011;24037;49.536;8.500;2022-10-31T11:13:03;13.60;;;7.95;;
38240;SDS011;24037;49.536;8.500;2022-10-31T11:15:49;15.02;;;7.30;;
38240;SDS011;24037;49.536;8.500;2022-10-31T11:18:25;12.52;;;8.07;;
38240;SDS011;24037;49.536;8.500;2022-10-31T11:20:56;14.23;;;7.50;;
38240;SDS011;24037;49.536;8.500;2022-10-31T11:23:24;15.13;;;7.65;;
38240;SDS011;24037;49.536;8.500;2022-10-31T11:26:14;14.43;;;7.03;;
38240;SDS011;24037;49.536;8.500;2022-10-31T11:28:57;14.15;;;7.72;;
38240;SDS011;24037;49.536;8.500;2022-10-31T11:31:24;12.27;;;6.93;;
38240;SDS011;24037;49.536;8.500;2022-10-31T11:33:55;13.80;;;6.78;;
38240;SDS011;24037;49.536;8.500;2022-10-31T11:36:32;13.23;;;7.70;;
38240;SDS011;24037;49.536;8.500;2022-10-31T11:39:03;12.05;;;8.98;;
38240;SDS011;24037;49.536;8.500;2022-10-31T11:41:38;13.35;;;7.78;;
38240;SDS011;24037;49.536;8.500;2022-10-31T11:46:54;11.23;;;7.40;;
38240;SDS011;24037;49.536;8.500;2022-10-31T11:51:56;13.13;;;7.95;;
38240;SDS011;24037;49.536;8.500;2022-10-31T11:54:30;11.63;;;7.60;;
38240;SDS011;24037;49.536;8.500;2022-10-31T11:57:41;15.35;;;8.75;;
38240;SDS011;24037;49.536;8.500;2022-10-31T12:00:21;15.93;;;9.30;;
38240;SDS011;24037;49.536;8.500;2022-10-31T12:02:50;17.38;;;8.90;;
38240;SDS011;24037;49.536;8.500;2022-10-31T12:05:23;15.38;;;9.00;;
38240;SDS011;24037;49.536;8.500;2022-10-31T12:07:58;14.80;;;9.05;;
38240;SDS011;24037;49.536;8.500;2022-10-31T12:10:28;13.75;;;8.55;;
38240;SDS011;24037;49.536;8.500;2022-10-31T12:13:11;15.38;;;8.88;;
38240;SDS011;24037;49.536;8.500;2022-10-31T12:16:30;10.82;;;8.32;;
38240;SDS011;24037;49.536;8.500;2022-10-31T12:19:06;20.00;;;9.45;;
38240;SDS011;24037;49.536;8.500;2022-10-31T12:22:13;18.45;;;10.05;;
38240;SDS011;24037;49.536;8.500;2022-10-31T12:27:33;12.50;;;8.93;;
38240;SDS011;24037;49.536;8.500;2022-10-31T12:30:09;18.00;;;9.55;;
38240;SDS011;24037;49.536;8.500;2022-10-31T12:32:52;12.68;;;8.75;;
38240;SDS011;24037;49.536;8.500;2022-10-31T12:35:32;16.85;;;9.70;;
38240;SDS011;24037;49.536;8.500;2022-10-31T12:38:17;16.88;;;9.32;;
38240;SDS011;24037;49.536;8.500;2022-10-31T12:55:40;12.45;;;7.60;;
38240;SDS011;24037;49.536;8.500;2022-10-31T12:58:26;12.98;;;7.82;;
38240;SDS011;24037;49.536;8.500;2022-10-31T13:06:24;12.10;;;9.15;;
38240;SDS011;24037;49.536;8.500;2022-10-31T13:08:59;12.18;;;8.38;;
38240;SDS011;24037;49.536;8.500;2022-10-31T13:11:30;13.27;;;9.07;;
38240;SDS011;24037;49.536;8.500;2022-10-31T13:14:02;12.73;;;7.40;;
38240;SDS011;24037;49.536;8.500;2022-10-31T13:16:35;10.57;;;6.35;;
38240;SDS011;24037;49.536;8.500;2022-10-31T13:19:12;14.70;;;7.93;;
38240;SDS011;24037;49.536;8.500;2022-10-31T13:24:44;18.52;;;8.15;;
38240;SDS011;24037;49.536;8.500;2022-10-31T13:27:26;13.75;;;8.80;;
38240;SDS011;24037;49.536;8.500;2022-10-31T13:32:29;14.15;;;8.85;;
38240;SDS011;24037;49.536;8.500;2022-10-31T13:35:10;15.00;;;8.48;;
38240;SDS011;24037;49.536;8.500;2022-10-31T13:37:49;17.35;;;10.05;;
38240;SDS011;24037;49.536;8.500;2022-10-31T13:42:59;13.20;;;8.75;;
38240;SDS011;24037;49.536;8.500;2022-10-31T13:45:55;16.00;;;8.50;;
38240;SDS011;24037;49.536;8.500;2022-10-31T13:51:00;12.40;;;7.55;;
38240;SDS011;24037;49.536;8.500;2022-10-31T13:53:40;15.55;;;7.65;;
38240;SDS011;24037;49.536;8.500;2022-10-31T13:56:25;15.82;;;8.25;;
38240;SDS011;24037;49.536;8.500;2022-10-31T14:01:34;13.50;;;7.57;;
38240;SDS011;24037;49.536;8.500;2022-10-31T14:06:36;14.30;;;9.05;;
38240;SDS011;24037;49.536;8.500;2022-10-31T14:12:39;15.50;;;9.25;;
38240;SDS011;24037;49.536;8.500;2022-10-31T14:15:24;17.63;;;9.05;;
38240;SDS011;24037;49.536;8.500;2022-10-31T14:17:54;19.80;;;10.18;;
38240;SDS011;24037;49.536;8.500;2022-10-31T14:20:39;19.70;;;9.93;;
38240;SDS011;24037;49.536;8.500;2022-10-31T14:28:34;14.40;;;8.45;;
38240;SDS011;24037;49.536;8.500;2022-10-31T14:31:01;17.35;;;8.93;;
38240;SDS011;24037;49.536;8.500;2022-10-31T14:33:28;19.60;;;9.77;;
38240;SDS011;24037;49.536;8.500;2022-10-31T14:36:00;18.77;;;9.88;;
38240;SDS011;24037;49.536;8.500;2022-10-31T14:41:13;15.70;;;9.25;;
38240;SDS011;24037;49.536;8.500;2022-10-31T14:51:59;14.52;;;9.38;;
38240;SDS011;24037;49.536;8.500;2022-10-31T14:54:37;14.98;;;8.93;;
38240;SDS011;24037;49.536;8.500;2022-10-31T14:59:48;15.10;;;8.63;;
38240;SDS011;24037;49.536;8.500;2022-10-31T15:04:52;18.48;;;10.63;;
38240;SDS011;24037;49.536;8.500;2022-10-31T15:07:24;20.13;;;9.85;;
38240;SDS011;24037;49.536;8.500;2022-10-31T15:10:03;15.32;;;9.23;;
38240;SDS011;24037;49.536;8.500;2022-10-31T15:12:36;18.33;;;11.73;;
38240;SDS011;24037;49.536;8.500;2022-10-31T15:15:18;19.85;;;10.30;;
38240;SDS011;24037;49.536;8.500;2022-10-31T15:17:52;15.82;;;9.73;;
38240;SDS011;24037;49.536;8.500;2022-10-31T15:20:26;17.35;;;10.55;;
38240;SDS011;24037;49.536;8.500;2022-10-31T15:22:59;17.60;;;9.15;;
38240;SDS011;24037;49.536;8.500;2022-10-31T15:25:27;17.25;;;10.55;;
38240;SDS011;24037;49.536;8.500;2022-10-31T15:27:57;19.88;;;10.55;;
38240;SDS011;24037;49.536;8.500;2022-10-31T15:30:24;16.85;;;9.38;;
38240;SDS011;24037;49.536;8.500;2022-10-31T15:32:52;14.82;;;9.48;;
38240;SDS011;24037;49.536;8.500;2022-10-31T15:35:20;18.42;;;9.93;;
38240;SDS011;24037;49.536;8.500;2022-10-31T15:37:51;13.70;;;8.68;;
38240;SDS011;24037;49.536;8.500;2022-10-31T15:40:19;15.18;;;8.77;;
38240;SDS011;24037;49.536;8.500;2022-10-31T15:42:52;18.50;;;8.93;;
38240;SDS011;24037;49.536;8.500;2022-10-31T15:45:27;17.85;;;10.35;;
38240;SDS011;24037;49.536;8.500;2022-10-31T15:50:31;18.25;;;9.98;;
38240;SDS011;24037;49.536;8.500;2022-10-31T15:53:05;19.23;;;9.38;;
38240;SDS011;24037;49.536;8.500;2022-10-31T15:55:45;15.20;;;9.05;;
38240;SDS011;24037;49.536;8.500;2022-10-31T15:58:20;20.17;;;9.37;;
38240;SDS011;24037;49.536;8.500;2022-10-31T16:01:00;16.00;;;8.25;;
38240;SDS011;24037;49.536;8.500;2022-10-31T16:03:32;17.30;;;9.45;;
38240;SDS011;24037;49.536;8.500;2022-10-31T16:06:01;13.32;;;8.30;;
38240;SDS011;24037;49.536;8.500;2022-10-31T16:11:14;12.32;;;6.22;;
38240;SDS011;24037;49.536;8.500;2022-10-31T16:13:54;15.23;;;8.55;;
38240;SDS011;24037;49.536;8.500;2022-10-31T16:16:48;14.55;;;8.55;;
38240;SDS011;24037;49.536;8.500;2022-10-31T16:19:19;14.80;;;7.97;;
38240;SDS011;24037;49.536;8.500;2022-10-31T16:21:55;12.43;;;6.97;;
38240;SDS011;24037;49.536;8.500;2022-10-31T16:24:42;15.93;;;7.88;;
38240;SDS011;24037;49.536;8.500;2022-10-31T16:27:20;14.00;;;7.13;;
38240;SDS011;24037;49.536;8.500;2022-10-31T16:29:51;15.77;;;8.38;;
38240;SDS011;24037;49.536;8.500;2022-10-31T16:37:37;15.45;;;8.45;;
38240;SDS011;24037;49.536;8.500;2022-10-31T16:40:08;16.38;;;8.02;;
38240;SDS011;24037;49.536;8.500;2022-10-31T16:42:39;14.63;;;9.38;;
38240;SDS011;24037;49.536;8.500;2022-10-31T16:45:06;15.98;;;9.13;;
38240;SDS011;24037;49.536;8.500;2022-10-31T16:47:33;11.93;;;7.97;;
38240;SDS011;24037;49.536;8.500;2022-10-31T16:49:59;15.98;;;9.73;;
38240;SDS011;24037;49.536;8.500;2022-10-31T16:52:26;18.13;;;10.68;;
38240;SDS011;24037;49.536;8.500;2022-10-31T16:54:52;13.73;;;9.93;;
38240;SDS011;24037;49.536;8.500;2022-10-31T16:57:20;18.08;;;10.05;;
38240;SDS011;24037;49.536;8.500;2022-10-31T16:59:52;15.75;;;10.40;;
38240;SDS011;24037;49.536;8.500;2022-10-31T17:02:21;17.52;;;9.90;;
38240;SDS011;24037;49.536;8.500;2022-10-31T17:04:47;18.00;;;10.27;;
38240;SDS011;24037;49.536;8.500;2022-10-31T17:07:14;19.38;;;11.07;;
38240;SDS011;24037;49.536;8.500;2022-10-31T17:09:40;15.02;;;9.43;;
38240;SDS011;24037;49.536;8.500;2022-10-31T17:12:06;24.83;;;12.93;;
38240;SDS011;24037;49.536;8.500;2022-10-31T17:14:40;27.13;;;16.00;;
38240;SDS011;24037;49.536;8.500;2022-10-31T17:17:07;25.30;;;15.85;;
38240;SDS011;24037;49.536;8.500;2022-10-31T17:19:33;20.17;;;14.88;;
38240;SDS011;24037;49.536;8.500;2022-10-31T17:22:00;25.23;;;16.75;;
38240;SDS011;24037;49.536;8.500;2022-10-31T17:24:27;30.35;;;18.45;;
38240;SDS011;24037;49.536;8.500;2022-10-31T17:26:53;20.70;;;14.63;;
38240;SDS011;24037;49.536;8.500;2022-10-31T17:29:19;19.23;;;13.10;;
38240;SDS011;24037;49.536;8.500;2022-10-31T17:31:45;23.45;;;12.13;;
38240;SDS011;24037;49.536;8.500;2022-10-31T17:34:12;19.00;;;12.27;;
38240;SDS011;24037;49.536;8.500;2022-10-31T17:36:38;18.33;;;11.50;;
38240;SDS011;24037;49.536;8.500;2022-10-31T17:39:04;17.63;;;10.65;;
38240;SDS011;24037;49.536;8.500;2022-10-31T17:41:32;20.60;;;12.35;;
38240;SDS011;24037;49.536;8.500;2022-10-31T17:43:58;21.05;;;13.57;;
38240;SDS011;24037;49.536;8.500;2022-10-31T17:46:24;33.00;;;18.65;;
38240;SDS011;24037;49.536;8.500;2022-10-31T17:48:51;19.92;;;12.43;;
38240;SDS011;24037;49.536;8.500;2022-10-31T17:51:17;22.95;;;10.98;;
38240;SDS011;24037;49.536;8.500;2022-10-31T17:53:43;14.30;;;9.98;;
38240;SDS011;24037;49.536;8.500;2022-10-31T17:56:10;18.50;;;9.77;;
38240;SDS011;24037;49.536;8.500;2022-10-31T17:58:36;25.10;;;11.35;;
38240;SDS011;24037;49.536;8.500;2022-10-31T18:01:07;15.23;;;9.65;;
38240;SDS011;24037;49.536;8.500;2022-10-31T18:03:35;14.00;;;9.52;;
38240;SDS011;24037;49.536;8.500;2022-10-31T18:06:01;34.08;;;19.42;;
38240;SDS011;24037;49.536;8.500;2022-10-31T18:08:28;23.67;;;14.40;;
38240;SDS011;24037;49.536;8.500;2022-10-31T18:10:56;29.25;;;14.45;;
38240;SDS011;24037;49.536;8.500;2022-10-31T18:13:26;22.35;;;14.38;;